Time;durP1;ratioP1;P1;durP2;ratioP2;P2;SDS_P1;SDS_P2;PMS_P1;PMS_P2;Temp;Humidity;BMP_temperature;BMP_pressure;BME280_temperature;BME280_humidity;BME280_pressure;Samples;Min_cycle;Max_cycle;Signal;HPM_P1;HPM_P2
2021/05/05 00:00:22;;;;;;;6.17;4.33;;;13.00;99.90;;;;;;5036778;28;20309;-67
2021/05/05 00:02:48;;;;;;;5.87;4.03;;;13.00;99.90;;;;;;5033922;28;20207;-67
2021/05/05 00:05:15;;;;;;;6.80;4.10;;;12.90;99.90;;;;;;5031682;28;20290;-67
2021/05/05 00:07:42;;;;;;;5.03;3.90;;;12.90;99.90;;;;;;5038601;28;20213;-68
2021/05/05 00:10:10;;;;;;;6.13;4.43;;;12.90;99.90;;;;;;5034606;28;20206;-67
2021/05/05 00:12:37;;;;;;;7.33;3.80;;;12.90;99.90;;;;;;5040860;28;20415;-67
2021/05/05 00:15:08;;;;;;;4.80;4.07;;;12.90;99.90;;;;;;5035108;28;20309;-67
2021/05/05 00:17:35;;;;;;;5.33;4.00;;;12.80;99.90;;;;;;5032499;28;20637;-67
2021/05/05 00:20:02;;;;;;;5.63;4.30;;;12.90;99.90;;;;;;5037290;28;20218;-67
2021/05/05 00:22:28;;;;;;;6.30;3.77;;;12.90;99.90;;;;;;5043359;28;20577;-68
2021/05/05 00:24:55;;;;;;;6.60;4.10;;;12.80;99.90;;;;;;5037851;28;20209;-68
2021/05/05 00:27:21;;;;;;;6.03;3.80;;;12.80;99.90;;;;;;5039875;28;20308;-69
2021/05/05 00:29:47;;;;;;;7.53;3.83;;;12.80;99.90;;;;;;5037871;28;20569;-67
2021/05/05 00:32:15;;;;;;;4.33;3.83;;;12.80;99.90;;;;;;5048449;28;20294;-67
2021/05/05 00:34:41;;;;;;;4.00;3.50;;;12.80;99.90;;;;;;5031767;28;20459;-67
2021/05/05 00:37:07;;;;;;;5.30;3.43;;;12.80;99.90;;;;;;5033790;28;20248;-68
2021/05/05 00:39:34;;;;;;;5.53;3.80;;;12.80;99.90;;;;;;5044782;28;20210;-67
2021/05/05 00:42:00;;;;;;;3.57;2.87;;;12.70;99.90;;;;;;5037337;28;20293;-67
2021/05/05 00:44:27;;;;;;;3.53;2.97;;;12.70;99.90;;;;;;5033952;28;20249;-67
2021/05/05 00:46:53;;;;;;;3.67;2.93;;;12.70;99.90;;;;;;5035244;28;20206;-67
2021/05/05 00:49:20;;;;;;;3.40;2.70;;;12.70;99.90;;;;;;5046534;28;20260;-67
2021/05/05 00:51:46;;;;;;;4.37;3.00;;;12.60;99.90;;;;;;5032985;28;20331;-67
2021/05/05 00:54:13;;;;;;;3.20;2.60;;;12.60;99.90;;;;;;5039359;28;20213;-68
2021/05/05 00:56:39;;;;;;;3.90;2.87;;;12.60;99.90;;;;;;5033870;28;20290;-68
2021/05/05 00:59:06;;;;;;;3.77;2.40;;;12.60;99.90;;;;;;5036889;28;20234;-67
2021/05/05 01:01:32;;;;;;;2.60;2.40;;;12.60;99.90;;;;;;5036321;28;20281;-68
2021/05/05 01:03:58;;;;;;;3.83;2.73;;;12.60;99.90;;;;;;5032683;28;20202;-68
2021/05/05 01:06:26;;;;;;;2.80;2.50;;;12.60;99.90;;;;;;5037126;28;20623;-67
2021/05/05 01:08:53;;;;;;;3.17;2.33;;;12.60;99.90;;;;;;5035144;28;20567;-67
2021/05/05 01:11:20;;;;;;;3.13;2.47;;;12.60;99.90;;;;;;5037236;28;20301;-68
2021/05/05 01:13:46;;;;;;;2.90;2.43;;;12.50;99.90;;;;;;5046163;28;20251;-67
2021/05/05 01:16:15;;;;;;;3.00;2.57;;;12.50;99.90;;;;;;5037144;28;20663;-68
2021/05/05 01:18:42;;;;;;;2.70;2.50;;;12.50;99.90;;;;;;5038838;28;20264;-67
2021/05/05 01:21:09;;;;;;;2.60;2.40;;;12.60;99.90;;;;;;5026941;28;20219;-67
2021/05/05 01:23:36;;;;;;;4.33;2.50;;;12.50;99.90;;;;;;5045888;28;20296;-67
2021/05/05 01:26:02;;;;;;;2.77;2.40;;;12.50;99.90;;;;;;5040481;28;20290;-68
2021/05/05 01:28:29;;;;;;;3.57;2.30;;;12.50;99.90;;;;;;5044746;28;20209;-68
2021/05/05 01:30:55;;;;;;;3.87;2.30;;;12.50;99.90;;;;;;5037995;28;20233;-67
2021/05/05 01:33:22;;;;;;;3.83;2.70;;;12.50;99.90;;;;;;5033746;28;20705;-68
2021/05/05 01:35:50;;;;;;;2.57;2.23;;;12.40;99.90;;;;;;5036814;28;20210;-67
2021/05/05 01:38:18;;;;;;;2.90;2.60;;;12.40;99.90;;;;;;5032482;28;20218;-68
2021/05/05 01:40:44;;;;;;;3.43;2.47;;;12.40;99.90;;;;;;5038010;28;20338;-67
2021/05/05 01:43:11;;;;;;;2.97;2.67;;;12.40;99.90;;;;;;5038670;28;20206;-66
2021/05/05 01:45:38;;;;;;;4.00;2.60;;;12.40;99.90;;;;;;5035591;28;20213;-67
2021/05/05 01:48:07;;;;;;;3.03;2.60;;;12.30;99.90;;;;;;5042548;28;20325;-67
2021/05/05 01:50:34;;;;;;;3.50;3.07;;;12.30;99.90;;;;;;5031373;28;20210;-67
2021/05/05 01:53:00;;;;;;;3.10;2.80;;;12.30;99.90;;;;;;5041893;28;20289;-67
2021/05/05 01:55:27;;;;;;;3.27;2.33;;;12.30;99.90;;;;;;5043923;28;20249;-67
2021/05/05 01:57:54;;;;;;;3.73;2.70;;;12.30;99.90;;;;;;5027918;28;20206;-66
2021/05/05 02:00:23;;;;;;;3.33;2.33;;;12.20;99.90;;;;;;5033151;28;20224;-69
2021/05/05 02:02:49;;;;;;;2.33;2.13;;;12.20;99.90;;;;;;5033424;28;20206;-67
2021/05/05 02:05:16;;;;;;;2.60;2.40;;;12.10;99.90;;;;;;5038144;28;20553;-67
2021/05/05 02:07:43;;;;;;;3.57;2.63;;;12.10;99.90;;;;;;5037185;28;20210;-68
2021/05/05 02:10:12;;;;;;;5.23;3.10;;;12.10;99.90;;;;;;5032282;28;20203;-68
2021/05/05 02:12:40;;;;;;;3.57;3.00;;;12.10;99.90;;;;;;5040546;28;20210;-67
2021/05/05 02:15:09;;;;;;;3.37;2.60;;;12.10;99.90;;;;;;5032351;28;20257;-68
2021/05/05 02:17:36;;;;;;;3.93;2.90;;;12.00;99.90;;;;;;5032209;28;20206;-67
2021/05/05 02:20:04;;;;;;;2.90;2.60;;;12.00;99.90;;;;;;5032553;28;20584;-66
2021/05/05 02:22:30;;;;;;;3.07;2.33;;;12.00;99.90;;;;;;5035995;28;20210;-67
2021/05/05 02:24:56;;;;;;;3.13;2.83;;;12.00;99.90;;;;;;5033833;28;20663;-67
2021/05/05 02:27:23;;;;;;;3.17;2.77;;;12.00;99.90;;;;;;5036017;28;20213;-66
2021/05/05 02:29:50;;;;;;;2.93;2.63;;;12.00;99.90;;;;;;5035313;28;20205;-67
2021/05/05 02:32:23;;;;;;;2.53;2.33;;;11.90;99.90;;;;;;5040105;28;20206;-68
2021/05/05 02:34:50;;;;;;;3.10;2.90;;;11.90;99.90;;;;;;5033756;28;20265;-68
2021/05/05 02:37:17;;;;;;;3.53;2.57;;;11.90;99.90;;;;;;5038736;28;20263;-68
2021/05/05 02:39:44;;;;;;;3.67;2.67;;;11.90;99.90;;;;;;5032489;28;20705;-67
2021/05/05 02:42:14;;;;;;;4.40;2.57;;;11.80;99.90;;;;;;5035373;28;20202;-68
2021/05/05 02:44:41;;;;;;;2.93;2.63;;;11.80;99.90;;;;;;5028583;28;20206;-67
2021/05/05 02:47:08;;;;;;;4.93;2.87;;;11.80;99.90;;;;;;5032971;28;20302;-66
2021/05/05 02:49:35;;;;;;;3.20;2.90;;;11.80;99.90;;;;;;5030752;28;20210;-68
2021/05/05 02:52:02;;;;;;;2.50;2.30;;;11.80;99.90;;;;;;5036079;28;20228;-67
2021/05/05 02:54:29;;;;;;;6.80;2.70;;;11.80;99.90;;;;;;5044747;28;20208;-67
2021/05/05 02:56:56;;;;;;;4.00;2.90;;;11.80;99.90;;;;;;5049041;28;20210;-67
2021/05/05 02:59:24;;;;;;;4.50;2.73;;;11.80;99.90;;;;;;5035867;28;20220;-67
2021/05/05 03:01:51;;;;;;;2.97;2.67;;;11.70;99.90;;;;;;5035176;28;20228;-68
2021/05/05 03:04:18;;;;;;;6.47;2.60;;;11.70;99.90;;;;;;5036035;28;20313;-68
2021/05/05 03:06:44;;;;;;;4.03;3.07;;;11.70;99.90;;;;;;5029579;28;20218;-68
2021/05/05 03:09:12;;;;;;;3.70;3.03;;;11.70;99.90;;;;;;5038716;28;20269;-67
2021/05/05 03:11:38;;;;;;;3.30;3.00;;;11.70;99.90;;;;;;5031586;28;20245;-67
2021/05/05 03:14:05;;;;;;;3.70;2.83;;;11.70;99.90;;;;;;5047852;28;20223;-66
2021/05/05 03:16:31;;;;;;;2.87;2.57;;;11.70;99.90;;;;;;5039127;28;20202;-68
2021/05/05 03:18:58;;;;;;;3.13;2.80;;;11.80;99.90;;;;;;5051216;28;20212;-66
2021/05/05 03:21:25;;;;;;;4.40;2.77;;;11.80;99.90;;;;;;5034442;28;20262;-66
2021/05/05 03:23:51;;;;;;;3.43;3.13;;;11.80;99.90;;;;;;5043801;28;20245;-68
2021/05/05 03:26:18;;;;;;;4.30;2.77;;;11.70;99.90;;;;;;5044051;28;20210;-68
2021/05/05 03:28:44;;;;;;;3.10;2.80;;;11.90;99.90;;;;;;5040351;28;20222;-67
2021/05/05 03:31:11;;;;;;;3.23;2.40;;;12.00;99.90;;;;;;5039754;28;20266;-67
2021/05/05 03:33:37;;;;;;;2.73;2.53;;;11.90;99.90;;;;;;5040400;28;20233;-67
2021/05/05 03:36:04;;;;;;;4.13;2.70;;;12.10;99.90;;;;;;5039306;28;20210;-67
2021/05/05 03:38:31;;;;;;;2.90;2.60;;;12.10;99.90;;;;;;5039477;28;20709;-67
2021/05/05 03:40:57;;;;;;;2.90;2.60;;;12.20;99.90;;;;;;5041763;28;20226;-68
2021/05/05 03:43:24;;;;;;;3.57;2.93;;;12.20;99.90;;;;;;5038669;28;20249;-67
2021/05/05 03:45:50;;;;;;;3.17;2.87;;;12.20;99.90;;;;;;5044526;28;20210;-67
2021/05/05 03:48:17;;;;;;;5.00;3.10;;;12.20;99.90;;;;;;5039053;28;20228;-67
2021/05/05 03:50:43;;;;;;;4.03;3.37;;;12.20;99.90;;;;;;5039968;28;20257;-68
2021/05/05 03:53:10;;;;;;;3.50;3.00;;;12.20;99.90;;;;;;5037747;28;20285;-68
2021/05/05 03:55:37;;;;;;;7.53;3.00;;;12.20;99.90;;;;;;5043981;28;20680;-67
2021/05/05 03:58:03;;;;;;;4.43;2.90;;;12.20;99.90;;;;;;5038959;28;20858;-68
2021/05/05 04:00:30;;;;;;;3.33;2.67;;;12.20;99.90;;;;;;5034134;28;20230;-67
2021/05/05 04:02:56;;;;;;;3.03;2.70;;;12.20;99.90;;;;;;5037862;28;20211;-68
2021/05/05 04:05:22;;;;;;;3.77;2.90;;;12.20;99.90;;;;;;5039188;28;20639;-67
2021/05/05 04:07:49;;;;;;;3.10;2.80;;;12.20;99.90;;;;;;5046294;28;20666;-68
2021/05/05 04:10:15;;;;;;;3.03;2.57;;;12.20;99.90;;;;;;5036981;28;20602;-68
2021/05/05 04:12:43;;;;;;;2.90;2.70;;;12.10;99.90;;;;;;5034797;28;20622;-67
2021/05/05 04:15:10;;;;;;;2.83;2.60;;;12.10;99.90;;;;;;5033701;28;20230;-68
2021/05/05 04:17:36;;;;;;;2.80;2.27;;;12.10;99.90;;;;;;5035933;28;20217;-67
2021/05/05 04:20:03;;;;;;;2.90;2.50;;;12.10;99.90;;;;;;5036087;28;20250;-67
2021/05/05 04:22:29;;;;;;;3.00;2.80;;;12.10;99.90;;;;;;5032829;28;20663;-67
2021/05/05 04:24:56;;;;;;;3.23;2.73;;;12.10;99.90;;;;;;5050373;28;20254;-68
2021/05/05 04:27:22;;;;;;;3.13;2.50;;;12.10;99.90;;;;;;5050989;28;20230;-69
2021/05/05 04:29:50;;;;;;;2.67;2.47;;;12.20;99.90;;;;;;5041793;28;20301;-67
2021/05/05 04:32:16;;;;;;;2.80;2.30;;;12.30;99.90;;;;;;5039433;28;20198;-67
2021/05/05 04:34:43;;;;;;;2.53;2.33;;;12.40;99.90;;;;;;5033866;28;20316;-68
2021/05/05 04:37:10;;;;;;;3.50;2.53;;;12.40;99.90;;;;;;5036624;28;20297;-69
2021/05/05 04:39:37;;;;;;;3.00;2.63;;;12.50;99.90;;;;;;5043195;28;20210;-68
2021/05/05 04:42:05;;;;;;;2.87;2.50;;;12.60;99.90;;;;;;5040057;28;20323;-67
2021/05/05 04:44:31;;;;;;;3.77;2.63;;;12.70;99.90;;;;;;5036379;28;20242;-67
2021/05/05 04:46:59;;;;;;;2.53;2.23;;;12.80;99.90;;;;;;5048838;28;20626;-66
2021/05/05 04:49:25;;;;;;;5.20;2.90;;;12.90;99.90;;;;;;5038869;28;20219;-66
2021/05/05 04:51:52;;;;;;;5.97;2.43;;;13.00;99.90;;;;;;5034870;28;20202;-67
2021/05/05 04:54:18;;;;;;;4.27;2.77;;;13.00;99.90;;;;;;5039584;28;20210;-68
2021/05/05 04:56:44;;;;;;;3.50;2.20;;;13.00;99.90;;;;;;5036967;28;20249;-67
2021/05/05 04:59:11;;;;;;;4.87;2.33;;;13.10;99.90;;;;;;5034823;28;20227;-67
2021/05/05 05:01:38;;;;;;;4.77;2.60;;;13.10;99.90;;;;;;5033160;28;20226;-67
2021/05/05 05:04:05;;;;;;;3.60;2.87;;;13.10;99.90;;;;;;5032716;28;20297;-70
2021/05/05 05:06:32;;;;;;;3.17;2.40;;;13.10;99.90;;;;;;5039921;28;20253;-70
2021/05/05 05:08:58;;;;;;;3.00;2.43;;;13.20;99.90;;;;;;5037597;28;20224;-69
2021/05/05 05:11:24;;;;;;;4.03;2.17;;;13.30;99.90;;;;;;5028340;28;20200;-69
2021/05/05 05:13:51;;;;;;;2.40;2.10;;;13.50;99.90;;;;;;5037059;28;20226;-70
2021/05/05 05:16:17;;;;;;;3.50;2.27;;;13.70;99.90;;;;;;5040984;28;20211;-69
2021/05/05 05:18:44;;;;;;;2.10;1.90;;;13.70;99.90;;;;;;5034875;28;20713;-69
2021/05/05 05:21:11;;;;;;;3.10;2.23;;;13.90;99.90;;;;;;5032480;28;20215;-68
2021/05/05 05:23:38;;;;;;;5.73;1.97;;;14.00;99.90;;;;;;5051456;28;20296;-68
2021/05/05 05:26:04;;;;;;;1.80;1.57;;;14.00;99.90;;;;;;5035693;28;20704;-69
2021/05/05 05:28:30;;;;;;;2.27;1.60;;;14.10;99.90;;;;;;5034241;28;20692;-68
2021/05/05 05:30:57;;;;;;;4.67;1.60;;;14.00;99.90;;;;;;5033622;28;20622;-68
2021/05/05 05:33:25;;;;;;;1.80;1.70;;;14.00;99.90;;;;;;5043038;28;20262;-68
2021/05/05 05:35:51;;;;;;;1.60;1.50;;;14.00;99.90;;;;;;5030261;28;20585;-68
2021/05/05 05:38:19;;;;;;;3.13;1.80;;;14.00;99.90;;;;;;5034006;28;20781;-68
2021/05/05 05:40:45;;;;;;;3.20;1.90;;;14.00;99.90;;;;;;5030213;28;20313;-69
2021/05/05 05:43:12;;;;;;;4.53;1.83;;;14.00;99.70;;;;;;5035015;28;20209;-68
2021/05/05 05:45:39;;;;;;;4.27;1.83;;;14.10;99.90;;;;;;5037159;28;20280;-69
2021/05/05 05:48:06;;;;;;;2.80;1.30;;;14.20;99.30;;;;;;5031204;28;20213;-69
2021/05/05 05:50:33;;;;;;;2.00;1.80;;;14.30;98.40;;;;;;5039025;28;20206;-69
2021/05/05 05:52:59;;;;;;;1.90;1.70;;;14.40;97.60;;;;;;5028657;28;20283;-69
2021/05/05 05:55:29;;;;;;;3.37;1.40;;;14.40;97.20;;;;;;5035160;28;20202;-66
2021/05/05 05:57:57;;;;;;;2.13;1.40;;;14.50;96.40;;;;;;5033836;28;20683;-67
2021/05/05 06:00:25;;;;;;;3.50;1.80;;;14.50;96.20;;;;;;5031853;28;20232;-67
2021/05/05 06:02:51;;;;;;;2.93;1.90;;;14.60;95.70;;;;;;5042113;28;20203;-68
2021/05/05 06:05:18;;;;;;;5.30;1.83;;;14.70;95.40;;;;;;5035123;28;20233;-67
2021/05/05 06:07:44;;;;;;;4.23;1.67;;;14.70;95.20;;;;;;5030938;28;20357;-69
2021/05/05 06:10:12;;;;;;;4.73;2.00;;;14.90;95.20;;;;;;5043462;28;20683;-69
2021/05/05 06:12:40;;;;;;;2.30;1.70;;;15.00;95.00;;;;;;5041604;28;20590;-69
2021/05/05 06:15:08;;;;;;;3.47;1.67;;;15.00;94.40;;;;;;5029009;28;20222;-68
2021/05/05 06:17:35;;;;;;;3.93;1.73;;;15.10;94.50;;;;;;5038257;28;20578;-67
2021/05/05 06:20:01;;;;;;;2.73;1.63;;;15.20;94.40;;;;;;5030882;28;20213;-69
2021/05/05 06:22:28;;;;;;;6.83;2.03;;;15.30;94.20;;;;;;5043935;28;20209;-68
2021/05/05 06:24:55;;;;;;;1.73;1.50;;;15.50;93.70;;;;;;5034319;28;20293;-69
2021/05/05 06:27:21;;;;;;;2.13;1.60;;;15.60;92.90;;;;;;5033641;28;20234;-70
2021/05/05 06:29:51;;;;;;;2.23;1.80;;;15.80;92.00;;;;;;5030235;28;20721;-70
2021/05/05 06:32:17;;;;;;;2.17;1.67;;;15.80;91.60;;;;;;5040146;28;20563;-74
2021/05/05 06:34:44;;;;;;;2.60;2.00;;;15.90;91.60;;;;;;5036169;28;20334;-71
2021/05/05 06:37:10;;;;;;;3.33;1.67;;;16.00;91.30;;;;;;5029269;28;20616;-69
2021/05/05 06:39:37;;;;;;;5.33;2.23;;;16.00;91.30;;;;;;5031229;28;20217;-72
2021/05/05 06:42:03;;;;;;;5.30;1.80;;;16.10;90.90;;;;;;5031421;28;20230;-75
2021/05/05 06:44:30;;;;;;;2.07;1.40;;;16.20;90.60;;;;;;5037558;28;20209;-72
2021/05/05 06:46:57;;;;;;;2.43;1.60;;;16.30;89.80;;;;;;5039267;28;20207;-73
2021/05/05 06:49:24;;;;;;;2.13;1.43;;;16.50;87.80;;;;;;5038098;28;20309;-70
2021/05/05 06:51:51;;;;;;;1.90;1.33;;;16.60;86.10;;;;;;5031586;28;20238;-70
2021/05/05 06:54:18;;;;;;;4.73;1.83;;;16.70;83.90;;;;;;5034425;28;20234;-70
2021/05/05 06:56:44;;;;;;;4.07;1.27;;;16.70;83.00;;;;;;5036890;28;20340;-71
2021/05/05 06:59:11;;;;;;;1.90;1.47;;;16.60;82.00;;;;;;5031868;28;20269;-71
2021/05/05 07:01:38;;;;;;;2.87;1.40;;;16.60;81.20;;;;;;5035314;28;20663;-70
2021/05/05 07:04:07;;;;;;;4.00;1.30;;;16.60;81.40;;;;;;5036719;28;20219;-68
2021/05/05 07:06:33;;;;;;;1.47;1.20;;;16.50;80.00;;;;;;5035961;28;20209;-72
2021/05/05 07:09:00;;;;;;;1.87;1.40;;;16.50;79.30;;;;;;5034562;28;20297;-73
2021/05/05 07:11:27;;;;;;;3.30;2.00;;;16.40;79.30;;;;;;5037471;28;20225;-71
2021/05/05 07:13:53;;;;;;;2.27;1.33;;;16.40;79.40;;;;;;5036093;28;20227;-72
2021/05/05 07:16:21;;;;;;;3.13;1.60;;;16.20;79.40;;;;;;5041891;28;20297;-71
2021/05/05 07:18:47;;;;;;;2.63;1.37;;;16.20;78.80;;;;;;5039599;28;20269;-71
2021/05/05 07:21:15;;;;;;;3.33;1.10;;;16.10;75.90;;;;;;5042038;28;20626;-70
2021/05/05 07:23:43;;;;;;;1.70;1.00;;;15.90;72.40;;;;;;5038006;28;20298;-73
2021/05/05 07:26:09;;;;;;;2.50;1.27;;;15.80;71.70;;;;;;5043472;28;20246;-71
2021/05/05 07:28:35;;;;;;;2.17;1.40;;;15.80;72.00;;;;;;5032704;28;20219;-69
2021/05/05 07:31:02;;;;;;;2.23;1.13;;;15.70;71.90;;;;;;5043635;28;20262;-66
2021/05/05 07:33:28;;;;;;;1.27;0.90;;;15.70;73.00;;;;;;5036068;28;20226;-66
2021/05/05 07:35:57;;;;;;;1.33;1.00;;;15.90;72.00;;;;;;5040421;28;20301;-67
2021/05/05 07:38:46;;;;;;;2.20;1.30;;;16.00;69.70;;;;;;5038983;28;20741;-66
2021/05/05 07:46:44;;;;;;;3.10;1.30;;;16.40;65.10;;;;;;5035067;28;20682;-65
2021/05/05 07:49:13;;;;;;;2.30;1.40;;;16.70;64.60;;;;;;5030472;28;20722;-67
2021/05/05 07:51:40;;;;;;;4.17;1.17;;;16.90;63.50;;;;;;5037879;28;20686;-68
2021/05/05 07:54:07;;;;;;;2.43;1.30;;;17.00;62.00;;;;;;5033832;28;20207;-65
2021/05/05 07:56:34;;;;;;;2.93;1.30;;;17.10;61.30;;;;;;5031852;28;20302;-65
2021/05/05 07:59:02;;;;;;;3.37;1.20;;;17.00;61.60;;;;;;5036552;28;20952;-68
2021/05/05 08:01:29;;;;;;;1.63;1.13;;;17.00;62.00;;;;;;5034141;28;20218;-66
2021/05/05 08:03:56;;;;;;;3.57;1.87;;;17.00;62.10;;;;;;5037330;28;20680;-68
2021/05/05 08:06:22;;;;;;;3.40;1.60;;;17.10;62.50;;;;;;5036573;28;20213;-68
2021/05/05 08:08:49;;;;;;;3.03;1.40;;;17.10;62.60;;;;;;5030588;28;20266;-68
2021/05/05 08:11:16;;;;;;;2.50;1.57;;;17.30;62.80;;;;;;5035117;28;20286;-69
2021/05/05 08:13:47;;;;;;;4.47;1.57;;;17.50;62.10;;;;;;5041576;28;20222;-71
2021/05/05 08:16:14;;;;;;;1.50;1.00;;;17.70;61.70;;;;;;5035082;28;20313;-70
2021/05/05 08:18:41;;;;;;;3.97;1.60;;;17.90;61.10;;;;;;5040078;28;20238;-69
2021/05/05 08:21:09;;;;;;;3.73;1.53;;;18.10;61.10;;;;;;5031153;28;20249;-69
2021/05/05 08:23:35;;;;;;;4.47;1.30;;;18.30;60.70;;;;;;5031005;28;20214;-69
2021/05/05 08:26:02;;;;;;;1.95;1.45;;;18.40;60.00;;;;;;5038762;28;20575;-68
2021/05/05 08:28:29;;;;;;;2.47;1.50;;;18.30;59.80;;;;;;5033925;28;20675;-69
2021/05/05 08:30:55;;;;;;;2.60;1.43;;;18.10;59.90;;;;;;5030357;28;20629;-69
2021/05/05 08:33:22;;;;;;;2.27;1.40;;;17.80;60.00;;;;;;5036570;28;20317;-69
2021/05/05 08:35:49;;;;;;;2.80;1.50;;;17.70;61.40;;;;;;5031960;28;20698;-70
2021/05/05 08:38:15;;;;;;;3.00;1.50;;;17.70;61.00;;;;;;5031853;28;20293;-70
2021/05/05 08:40:42;;;;;;;3.53;1.30;;;17.60;60.50;;;;;;5037037;28;20311;-69
2021/05/05 08:43:08;;;;;;;2.93;1.17;;;17.60;60.80;;;;;;5033037;28;20579;-70
2021/05/05 08:45:40;;;;;;;5.73;1.60;;;17.40;60.80;;;;;;5036444;28;20218;-70
2021/05/05 08:48:11;;;;;;;1.83;1.40;;;17.30;61.40;;;;;;5033184;28;20202;-70
2021/05/05 08:50:41;;;;;;;1.70;1.10;;;17.20;62.60;;;;;;5034752;28;20210;-70
2021/05/05 08:53:08;;;;;;;1.90;1.20;;;17.20;63.20;;;;;;5035988;28;20218;-69
2021/05/05 08:55:35;;;;;;;3.27;1.30;;;17.10;63.80;;;;;;5041826;28;20224;-68
2021/05/05 08:58:02;;;;;;;2.53;1.40;;;17.10;64.90;;;;;;5032658;28;20202;-69
2021/05/05 09:00:31;;;;;;;1.97;1.07;;;17.10;66.20;;;;;;5032292;28;20226;-69
2021/05/05 09:02:59;;;;;;;4.13;1.10;;;17.20;66.30;;;;;;5031474;28;20290;-69
2021/05/05 09:05:26;;;;;;;1.63;0.93;;;17.20;65.40;;;;;;5036790;28;20648;-69
2021/05/05 09:07:53;;;;;;;3.40;1.10;;;17.20;65.40;;;;;;5037190;28;20285;-70
2021/05/05 09:10:22;;;;;;;2.40;1.30;;;17.40;65.40;;;;;;5039402;28;20203;-69
2021/05/05 09:12:51;;;;;;;2.40;1.50;;;17.60;64.10;;;;;;5033207;28;20651;-71
2021/05/05 09:15:19;;;;;;;4.27;1.60;;;17.60;63.10;;;;;;5042881;28;20229;-69
2021/05/05 09:17:48;;;;;;;3.43;1.50;;;17.60;63.30;;;;;;5034271;28;20733;-70
2021/05/05 09:20:22;;;;;;;2.90;1.30;;;17.60;63.50;;;;;;5033082;28;20203;-70
2021/05/05 09:22:51;;;;;;;6.73;1.57;;;17.50;63.10;;;;;;5028313;28;20203;-69
2021/05/05 09:25:21;;;;;;;1.93;1.57;;;17.30;63.20;;;;;;5028357;28;20668;-69
2021/05/05 09:28:09;;;;;;;2.10;1.27;;;17.10;63.50;;;;;;5033103;28;20293;-70
2021/05/05 09:30:37;;;;;;;2.63;1.60;;;16.90;64.50;;;;;;5034054;28;20282;-68
2021/05/05 09:33:04;;;;;;;2.10;1.50;;;16.80;65.20;;;;;;5031442;28;20754;-69
2021/05/05 09:35:32;;;;;;;3.83;1.80;;;16.70;66.10;;;;;;5034578;28;20199;-70
2021/05/05 09:38:01;;;;;;;3.10;1.30;;;16.70;67.30;;;;;;5034725;28;20234;-69
2021/05/05 09:40:28;;;;;;;2.53;1.70;;;16.80;68.50;;;;;;5033870;28;20306;-69
2021/05/05 09:42:55;;;;;;;2.77;1.43;;;17.10;68.00;;;;;;5030679;28;20587;-69
2021/05/05 09:45:23;;;;;;;2.80;1.70;;;17.20;67.00;;;;;;5032290;28;20217;-70
2021/05/05 09:47:52;;;;;;;2.43;1.90;;;17.20;66.60;;;;;;5034069;28;20278;-69
2021/05/05 09:50:30;;;;;;;6.87;1.80;;;17.30;66.70;;;;;;5033741;28;20211;-68
2021/05/05 09:53:28;;;;;;;3.10;1.37;;;17.20;66.60;;;;;;5033696;28;20260;-68
2021/05/05 09:56:09;;;;;;;2.80;1.30;;;17.10;67.30;;;;;;5020945;28;20369;-70
2021/05/05 09:58:37;;;;;;;1.43;1.33;;;16.90;68.30;;;;;;5026019;28;20235;-69
2021/05/05 10:01:15;;;;;;;2.63;1.57;;;16.90;68.90;;;;;;5036325;28;20222;-69
2021/05/05 10:03:47;;;;;;;1.60;1.20;;;16.80;69.30;;;;;;5033704;28;20210;-69
2021/05/05 10:06:18;;;;;;;3.60;1.33;;;16.70;69.50;;;;;;5036470;28;20462;-69
2021/05/05 10:08:47;;;;;;;2.07;1.13;;;16.70;70.10;;;;;;5024057;28;20238;-68
2021/05/05 10:11:13;;;;;;;2.30;1.20;;;16.60;72.00;;;;;;5034751;28;20287;-68
2021/05/05 10:13:40;;;;;;;2.07;1.47;;;16.50;71.90;;;;;;5034225;28;20230;-68
2021/05/05 10:16:07;;;;;;;1.90;1.43;;;16.40;73.80;;;;;;5033583;28;20238;-69
2021/05/05 10:18:34;;;;;;;3.80;1.57;;;16.30;74.10;;;;;;5032662;28;20256;-67
2021/05/05 10:21:01;;;;;;;4.50;1.20;;;16.20;76.10;;;;;;5027231;28;20227;-68
2021/05/05 10:23:28;;;;;;;3.00;1.07;;;16.10;76.70;;;;;;5028075;28;20207;-68
2021/05/05 10:25:55;;;;;;;1.73;1.10;;;16.00;77.80;;;;;;5033000;28;20635;-68
2021/05/05 10:28:23;;;;;;;2.23;1.13;;;15.90;78.90;;;;;;5047223;28;20232;-68
2021/05/05 10:30:49;;;;;;;2.07;1.20;;;15.90;80.30;;;;;;5031370;28;20301;-68
2021/05/05 10:33:20;;;;;;;0.90;0.90;;;15.80;80.90;;;;;;5034380;28;20322;-65
2021/05/05 10:35:46;;;;;;;1.23;1.13;;;15.80;81.80;;;;;;5022502;28;20290;-65
2021/05/05 10:38:34;;;;;;;2.10;1.50;;;15.80;82.90;;;;;;5035124;28;20210;-65
2021/05/05 10:41:09;;;;;;;2.57;1.47;;;15.70;84.20;;;;;;5024147;28;20214;-65
2021/05/05 10:43:49;;;;;;;2.13;1.57;;;15.70;85.80;;;;;;5033332;28;20214;-65
2021/05/05 10:46:29;;;;;;;2.87;1.70;;;15.60;87.40;;;;;;5032993;28;20299;-65
2021/05/05 10:49:07;;;;;;;1.57;1.17;;;15.50;90.00;;;;;;5034018;28;20292;-66
2021/05/05 10:51:59;;;;;;;5.57;2.07;;;15.30;91.30;;;;;;5033004;28;20209;-65
2021/05/05 10:54:51;;;;;;;1.90;1.70;;;15.20;92.70;;;;;;5034104;28;20253;-66
2021/05/05 10:57:19;;;;;;;3.07;1.87;;;15.30;94.30;;;;;;5041028;28;20198;-65
2021/05/05 11:00:12;;;;;;;5.13;2.30;;;15.20;95.70;;;;;;5032971;28;20301;-64
2021/05/05 11:02:52;;;;;;;3.43;2.00;;;15.20;97.50;;;;;;5032411;28;20249;-65
2021/05/05 11:05:19;;;;;;;4.00;2.30;;;15.20;99.30;;;;;;5035215;28;20207;-66
2021/05/05 11:07:50;;;;;;;2.90;2.27;;;15.10;99.90;;;;;;5034374;28;20238;-65
2021/05/05 11:10:48;;;;;;;2.83;2.60;;;15.10;99.90;;;;;;5034676;28;20306;-66
2021/05/05 11:13:41;;;;;;;3.57;2.70;;;15.00;99.90;;;;;;5038151;28;20659;-66
2021/05/05 11:16:08;;;;;;;2.30;2.00;;;15.00;99.90;;;;;;5037578;28;20219;-66
2021/05/05 11:18:45;;;;;;;2.33;2.10;;;14.90;99.90;;;;;;5033682;28;20207;-65
2021/05/05 11:21:41;;;;;;;3.57;2.27;;;14.80;99.90;;;;;;5032716;28;20669;-67
2021/05/05 11:24:27;;;;;;;4.17;2.30;;;14.80;99.90;;;;;;5030666;28;20242;-66
2021/05/05 11:26:53;;;;;;;3.17;2.10;;;14.70;99.90;;;;;;5032630;28;20206;-67
2021/05/05 11:29:40;;;;;;;2.40;2.20;;;14.60;99.90;;;;;;5032757;28;20302;-66
2021/05/05 11:32:13;;;;;;;2.77;2.03;;;14.60;99.90;;;;;;5032932;28;20717;-66
2021/05/05 11:34:41;;;;;;;4.17;2.47;;;14.50;99.90;;;;;;5032772;28;20325;-68
2021/05/05 11:37:10;;;;;;;3.10;2.20;;;14.40;99.90;;;;;;5035184;28;20210;-67
2021/05/05 11:39:38;;;;;;;3.10;2.07;;;14.30;99.90;;;;;;5031706;28;20207;-68
2021/05/05 11:42:09;;;;;;;2.53;2.30;;;14.20;99.90;;;;;;5036299;28;20730;-70
2021/05/05 11:44:38;;;;;;;2.60;2.40;;;14.10;99.90;;;;;;5043667;28;20711;-69
2021/05/05 11:47:07;;;;;;;4.53;2.60;;;14.00;99.90;;;;;;5045466;28;20206;-66
2021/05/05 11:49:35;;;;;;;2.50;2.30;;;13.90;99.90;;;;;;5036572;28;20279;-70
2021/05/05 11:52:21;;;;;;;5.33;2.67;;;13.80;99.90;;;;;;5037107;28;20206;-73
2021/05/05 11:54:48;;;;;;;3.60;2.27;;;13.70;99.90;;;;;;5036306;28;20215;-72
2021/05/05 11:57:15;;;;;;;2.97;2.63;;;13.60;99.90;;;;;;5037507;28;20293;-73
2021/05/05 11:59:43;;;;;;;3.00;2.70;;;13.50;99.90;;;;;;5036744;28;20313;-72
2021/05/05 12:02:10;;;;;;;3.00;2.70;;;13.20;99.90;;;;;;5041049;28;20602;-71
2021/05/05 12:04:38;;;;;;;3.60;2.50;;;13.30;99.90;;;;;;5032619;28;20206;-72
2021/05/05 12:07:06;;;;;;;3.73;2.63;;;13.20;99.90;;;;;;5042729;28;20205;-71
2021/05/05 12:09:36;;;;;;;2.70;2.43;;;13.20;99.90;;;;;;5036615;28;20751;-72
2021/05/05 12:12:26;;;;;;;4.77;2.60;;;13.10;99.90;;;;;;5041098;28;20289;-69
2021/05/05 12:14:58;;;;;;;6.17;2.67;;;13.00;99.90;;;;;;5031706;28;20248;-71
2021/05/05 12:17:30;;;;;;;4.57;2.70;;;12.90;99.90;;;;;;5036847;28;20210;-73
2021/05/05 12:20:00;;;;;;;2.60;2.40;;;12.90;99.90;;;;;;5036685;28;20237;-70
2021/05/05 12:22:28;;;;;;;2.67;2.30;;;12.80;99.90;;;;;;5042041;28;20243;-71
2021/05/05 12:25:23;;;;;;;4.23;2.53;;;12.70;99.90;;;;;;5033219;28;20242;-70
2021/05/05 12:28:14;;;;;;;4.27;2.53;;;12.70;99.90;;;;;;5039432;28;20207;-73
2021/05/05 12:30:50;;;;;;;2.57;2.30;;;12.70;99.90;;;;;;5039404;28;20210;-72
2021/05/05 12:33:32;;;;;;;4.97;2.30;;;12.60;99.90;;;;;;5031785;28;20348;-65
2021/05/05 12:35:59;;;;;;;2.63;2.20;;;12.60;99.90;;;;;;5032003;28;20639;-66
2021/05/05 12:38:25;;;;;;;4.30;2.20;;;12.50;99.90;;;;;;5040585;28;20297;-66
2021/05/05 12:41:00;;;;;;;4.23;2.20;;;12.60;99.90;;;;;;5042296;28;20698;-66
2021/05/05 12:43:28;;;;;;;4.90;3.77;;;12.50;99.90;;;;;;5043379;28;20663;-66
2021/05/05 12:45:57;;;;;;;2.50;2.20;;;12.50;99.90;;;;;;5040218;28;20345;-66
2021/05/05 12:48:27;;;;;;;2.80;2.20;;;12.50;99.90;;;;;;5046578;28;20292;-65
2021/05/05 12:50:54;;;;;;;3.67;2.30;;;12.40;99.90;;;;;;5037060;28;20210;-66
2021/05/05 12:53:21;;;;;;;3.87;2.67;;;12.30;99.90;;;;;;5035910;28;20288;-66
2021/05/05 12:55:56;;;;;;;3.60;2.23;;;12.30;99.90;;;;;;5033211;28;20210;-65
2021/05/05 12:58:23;;;;;;;3.73;2.17;;;12.20;99.90;;;;;;5036646;28;20198;-65
2021/05/05 13:00:51;;;;;;;2.60;2.27;;;12.20;99.90;;;;;;5034348;28;20215;-65